sensor_id;sensor_type;location;lat;lon;timestamp;P1;durP1;ratioP1;P2;durP2;ratioP2
27383;SDS011;14851;51.166;4.760;2023-11-19T00:00:07;7.55;;;3.97;;
27383;SDS011;14851;51.166;4.760;2023-11-19T00:02:39;9.30;;;4.40;;
27383;SDS011;14851;51.166;4.760;2023-11-19T00:05:11;13.55;;;5.95;;
27383;SDS011;14851;51.166;4.760;2023-11-19T00:07:38;6.22;;;3.97;;
27383;SDS011;14851;51.166;4.760;2023-11-19T00:10:08;9.30;;;3.88;;
27383;SDS011;14851;51.166;4.760;2023-11-19T00:12:42;9.20;;;4.13;;
27383;SDS011;14851;51.166;4.760;2023-11-19T00:15:13;10.48;;;4.70;;
27383;SDS011;14851;51.166;4.760;2023-11-19T00:17:40;16.23;;;4.93;;
27383;SDS011;14851;51.166;4.760;2023-11-19T00:20:11;15.40;;;4.13;;
27383;SDS011;14851;51.166;4.760;2023-11-19T00:22:52;9.95;;;4.28;;
27383;SDS011;14851;51.166;4.760;2023-11-19T00:25:18;12.35;;;4.30;;
27383;SDS011;14851;51.166;4.760;2023-11-19T00:27:48;10.32;;;4.43;;
27383;SDS011;14851;51.166;4.760;2023-11-19T00:30:16;11.68;;;4.18;;
27383;SDS011;14851;51.166;4.760;2023-11-19T00:32:46;15.05;;;4.00;;
27383;SDS011;14851;51.166;4.760;2023-11-19T00:35:14;11.10;;;4.03;;
27383;SDS011;14851;51.166;4.760;2023-11-19T00:37:42;13.82;;;4.15;;
27383;SDS011;14851;51.166;4.760;2023-11-19T00:40:13;13.43;;;4.03;;
27383;SDS011;14851;51.166;4.760;2023-11-19T00:42:41;15.52;;;4.68;;
27383;SDS011;14851;51.166;4.760;2023-11-19T00:45:07;12.73;;;3.40;;
27383;SDS011;14851;51.166;4.760;2023-11-19T00:47:34;15.27;;;3.75;;
27383;SDS011;14851;51.166;4.760;2023-11-19T00:50:01;14.90;;;3.30;;
27383;SDS011;14851;51.166;4.760;2023-11-19T00:52:28;18.77;;;3.80;;
27383;SDS011;14851;51.166;4.760;2023-11-19T00:54:54;16.25;;;3.13;;
27383;SDS011;14851;51.166;4.760;2023-11-19T00:57:20;17.70;;;4.13;;
27383;SDS011;14851;51.166;4.760;2023-11-19T00:59:46;17.50;;;4.43;;
27383;SDS011;14851;51.166;4.760;2023-11-19T01:02:12;16.55;;;4.00;;
27383;SDS011;14851;51.166;4.760;2023-11-19T01:04:39;11.13;;;3.35;;
27383;SDS011;14851;51.166;4.760;2023-11-19T01:07:05;20.05;;;4.07;;
27383;SDS011;14851;51.166;4.760;2023-11-19T01:09:32;15.60;;;3.58;;
27383;SDS011;14851;51.166;4.760;2023-11-19T01:12:02;17.58;;;4.55;;
27383;SDS011;14851;51.166;4.760;2023-11-19T01:14:28;17.17;;;4.10;;
27383;SDS011;14851;51.166;4.760;2023-11-19T01:16:54;18.92;;;3.78;;
27383;SDS011;14851;51.166;4.760;2023-11-19T01:19:22;24.85;;;3.95;;
27383;SDS011;14851;51.166;4.760;2023-11-19T01:21:50;15.32;;;3.80;;
27383;SDS011;14851;51.166;4.760;2023-11-19T01:24:17;16.75;;;3.90;;
27383;SDS011;14851;51.166;4.760;2023-11-19T01:26:43;27.30;;;4.68;;
27383;SDS011;14851;51.166;4.760;2023-11-19T01:29:14;19.70;;;3.70;;
27383;SDS011;14851;51.166;4.760;2023-11-19T01:31:42;17.30;;;4.28;;
27383;SDS011;14851;51.166;4.760;2023-11-19T01:34:12;27.88;;;4.75;;
27383;SDS011;14851;51.166;4.760;2023-11-19T01:36:39;25.27;;;4.05;;
27383;SDS011;14851;51.166;4.760;2023-11-19T01:39:06;30.67;;;5.45;;
27383;SDS011;14851;51.166;4.760;2023-11-19T01:41:34;32.92;;;5.10;;
27383;SDS011;14851;51.166;4.760;2023-11-19T01:44:06;37.72;;;5.50;;
27383;SDS011;14851;51.166;4.760;2023-11-19T01:46:40;26.95;;;4.72;;
27383;SDS011;14851;51.166;4.760;2023-11-19T01:49:10;27.75;;;4.45;;
27383;SDS011;14851;51.166;4.760;2023-11-19T01:51:38;28.05;;;4.95;;
27383;SDS011;14851;51.166;4.760;2023-11-19T01:54:05;22.88;;;3.80;;
27383;SDS011;14851;51.166;4.760;2023-11-19T01:56:33;28.40;;;4.78;;
27383;SDS011;14851;51.166;4.760;2023-11-19T01:59:00;26.90;;;4.50;;
27383;SDS011;14851;51.166;4.760;2023-11-19T02:01:29;22.63;;;4.47;;
27383;SDS011;14851;51.166;4.760;2023-11-19T02:03:57;28.45;;;4.20;;
27383;SDS011;14851;51.166;4.760;2023-11-19T02:06:24;29.35;;;4.40;;
27383;SDS011;14851;51.166;4.760;2023-11-19T02:08:54;27.98;;;4.00;;
27383;SDS011;14851;51.166;4.760;2023-11-19T02:11:20;30.30;;;4.40;;
27383;SDS011;14851;51.166;4.760;2023-11-19T02:13:47;25.15;;;4.50;;
27383;SDS011;14851;51.166;4.760;2023-11-19T02:16:14;23.67;;;4.07;;
27383;SDS011;14851;51.166;4.760;2023-11-19T02:18:41;29.15;;;4.60;;
27383;SDS011;14851;51.166;4.760;2023-11-19T02:21:09;32.15;;;5.22;;
27383;SDS011;14851;51.166;4.760;2023-11-19T02:23:36;25.33;;;5.30;;
27383;SDS011;14851;51.166;4.760;2023-11-19T02:28:35;31.33;;;5.35;;
27383;SDS011;14851;51.166;4.760;2023-11-19T02:31:02;31.10;;;4.47;;
27383;SDS011;14851;51.166;4.760;2023-11-19T02:33:31;34.63;;;5.53;;
27383;SDS011;14851;51.166;4.760;2023-11-19T02:35:57;31.90;;;4.60;;
27383;SDS011;14851;51.166;4.760;2023-11-19T02:38:23;32.53;;;5.22;;
27383;SDS011;14851;51.166;4.760;2023-11-19T02:40:49;28.67;;;4.78;;
27383;SDS011;14851;51.166;4.760;2023-11-19T02:43:15;32.45;;;4.55;;
27383;SDS011;14851;51.166;4.760;2023-11-19T02:45:43;26.60;;;4.07;;
27383;SDS011;14851;51.166;4.760;2023-11-19T02:48:11;36.20;;;6.13;;
27383;SDS011;14851;51.166;4.760;2023-11-19T02:50:41;32.35;;;4.80;;
27383;SDS011;14851;51.166;4.760;2023-11-19T02:53:10;36.33;;;6.23;;
27383;SDS011;14851;51.166;4.760;2023-11-19T02:55:41;33.58;;;5.13;;
27383;SDS011;14851;51.166;4.760;2023-11-19T02:58:16;32.97;;;4.93;;
27383;SDS011;14851;51.166;4.760;2023-11-19T03:00:46;35.10;;;4.45;;
27383;SDS011;14851;51.166;4.760;2023-11-19T03:03:26;30.80;;;4.72;;
27383;SDS011;14851;51.166;4.760;2023-11-19T03:06:04;33.53;;;5.30;;
27383;SDS011;14851;51.166;4.760;2023-11-19T03:08:31;31.65;;;5.70;;
27383;SDS011;14851;51.166;4.760;2023-11-19T03:11:00;36.15;;;5.60;;
27383;SDS011;14851;51.166;4.760;2023-11-19T03:13:27;34.95;;;4.70;;
27383;SDS011;14851;51.166;4.760;2023-11-19T03:15:54;28.13;;;4.57;;
27383;SDS011;14851;51.166;4.760;2023-11-19T03:18:21;30.60;;;5.28;;
27383;SDS011;14851;51.166;4.760;2023-11-19T03:20:47;27.55;;;4.65;;
27383;SDS011;14851;51.166;4.760;2023-11-19T03:23:15;28.90;;;4.65;;
27383;SDS011;14851;51.166;4.760;2023-11-19T03:25:41;34.30;;;4.20;;
27383;SDS011;14851;51.166;4.760;2023-11-19T03:28:09;35.97;;;4.97;;
27383;SDS011;14851;51.166;4.760;2023-11-19T03:30:36;29.27;;;4.80;;
27383;SDS011;14851;51.166;4.760;2023-11-19T03:33:03;24.25;;;5.43;;
27383;SDS011;14851;51.166;4.760;2023-11-19T03:35:31;35.42;;;4.72;;
27383;SDS011;14851;51.166;4.760;2023-11-19T03:37:58;27.55;;;4.50;;
27383;SDS011;14851;51.166;4.760;2023-11-19T03:40:24;31.80;;;5.15;;
27383;SDS011;14851;51.166;4.760;2023-11-19T03:42:53;32.38;;;5.47;;
27383;SDS011;14851;51.166;4.760;2023-11-19T03:45:21;36.50;;;5.05;;
27383;SDS011;14851;51.166;4.760;2023-11-19T03:47:47;32.75;;;6.47;;
27383;SDS011;14851;51.166;4.760;2023-11-19T03:50:18;26.98;;;5.40;;
27383;SDS011;14851;51.166;4.760;2023-11-19T03:52:46;30.95;;;4.88;;
27383;SDS011;14851;51.166;4.760;2023-11-19T03:55:12;30.25;;;6.28;;
27383;SDS011;14851;51.166;4.760;2023-11-19T03:57:38;35.38;;;5.68;;
27383;SDS011;14851;51.166;4.760;2023-11-19T04:00:05;31.02;;;4.68;;
27383;SDS011;14851;51.166;4.760;2023-11-19T04:02:38;28.67;;;5.60;;
27383;SDS011;14851;51.166;4.760;2023-11-19T04:05:05;33.70;;;5.00;;
27383;SDS011;14851;51.166;4.760;2023-11-19T04:07:32;32.42;;;5.32;;
27383;SDS011;14851;51.166;4.760;2023-11-19T04:09:59;34.90;;;5.78;;
27383;SDS011;14851;51.166;4.760;2023-11-19T04:12:25;29.38;;;5.10;;
27383;SDS011;14851;51.166;4.760;2023-11-19T04:14:53;32.28;;;5.15;;
27383;SDS011;14851;51.166;4.760;2023-11-19T04:17:19;31.83;;;4.97;;
27383;SDS011;14851;51.166;4.760;2023-11-19T04:19:48;24.05;;;4.30;;
27383;SDS011;14851;51.166;4.760;2023-11-19T04:22:14;25.77;;;4.82;;
27383;SDS011;14851;51.166;4.760;2023-11-19T04:24:40;28.20;;;4.55;;
27383;SDS011;14851;51.166;4.760;2023-11-19T04:27:08;28.23;;;4.75;;
27383;SDS011;14851;51.166;4.760;2023-11-19T04:29:36;35.33;;;5.05;;
27383;SDS011;14851;51.166;4.760;2023-11-19T04:32:02;34.90;;;4.57;;
27383;SDS011;14851;51.166;4.760;2023-11-19T04:34:28;27.80;;;5.20;;
27383;SDS011;14851;51.166;4.760;2023-11-19T04:36:54;28.33;;;4.70;;
27383;SDS011;14851;51.166;4.760;2023-11-19T04:39:21;31.05;;;5.30;;
27383;SDS011;14851;51.166;4.760;2023-11-19T04:41:51;31.92;;;5.32;;
27383;SDS011;14851;51.166;4.760;2023-11-19T04:44:20;27.63;;;5.05;;
27383;SDS011;14851;51.166;4.760;2023-11-19T04:46:47;29.98;;;5.47;;
27383;SDS011;14851;51.166;4.760;2023-11-19T04:49:13;29.92;;;4.85;;
27383;SDS011;14851;51.166;4.760;2023-11-19T04:54:14;32.42;;;5.53;;
27383;SDS011;14851;51.166;4.760;2023-11-19T04:56:40;35.45;;;5.07;;
27383;SDS011;14851;51.166;4.760;2023-11-19T04:59:12;42.20;;;6.18;;
27383;SDS011;14851;51.166;4.760;2023-11-19T05:01:38;31.38;;;5.90;;
27383;SDS011;14851;51.166;4.760;2023-11-19T05:04:07;31.02;;;4.97;;
27383;SDS011;14851;51.166;4.760;2023-11-19T05:06:34;35.15;;;6.03;;
27383;SDS011;14851;51.166;4.760;2023-11-19T05:09:00;27.55;;;5.05;;
27383;SDS011;14851;51.166;4.760;2023-11-19T05:11:26;27.85;;;5.63;;
27383;SDS011;14851;51.166;4.760;2023-11-19T05:13:56;33.17;;;5.93;;
27383;SDS011;14851;51.166;4.760;2023-11-19T05:16:22;25.67;;;5.00;;
27383;SDS011;14851;51.166;4.760;2023-11-19T05:18:50;30.15;;;5.53;;
27383;SDS011;14851;51.166;4.760;2023-11-19T05:21:17;31.55;;;6.35;;
27383;SDS011;14851;51.166;4.760;2023-11-19T05:23:43;36.15;;;7.18;;
27383;SDS011;14851;51.166;4.760;2023-11-19T05:26:17;31.08;;;4.93;;
27383;SDS011;14851;51.166;4.760;2023-11-19T05:28:45;32.47;;;4.90;;
27383;SDS011;14851;51.166;4.760;2023-11-19T05:31:11;38.33;;;6.00;;
27383;SDS011;14851;51.166;4.760;2023-11-19T05:33:37;39.17;;;6.68;;
27383;SDS011;14851;51.166;4.760;2023-11-19T05:36:04;30.88;;;6.30;;
27383;SDS011;14851;51.166;4.760;2023-11-19T05:38:30;44.38;;;7.25;;
27383;SDS011;14851;51.166;4.760;2023-11-19T05:41:02;29.30;;;5.65;;
27383;SDS011;14851;51.166;4.760;2023-11-19T05:43:31;32.08;;;5.43;;
27383;SDS011;14851;51.166;4.760;2023-11-19T05:46:00;31.23;;;5.38;;
27383;SDS011;14851;51.166;4.760;2023-11-19T05:48:28;28.73;;;6.00;;
27383;SDS011;14851;51.166;4.760;2023-11-19T05:50:54;39.88;;;5.90;;
27383;SDS011;14851;51.166;4.760;2023-11-19T05:53:20;30.65;;;5.57;;
27383;SDS011;14851;51.166;4.760;2023-11-19T05:55:50;34.73;;;6.30;;
27383;SDS011;14851;51.166;4.760;2023-11-19T05:58:23;38.88;;;6.75;;
27383;SDS011;14851;51.166;4.760;2023-11-19T06:00:57;31.23;;;5.75;;
27383;SDS011;14851;51.166;4.760;2023-11-19T06:03:26;31.02;;;6.05;;
27383;SDS011;14851;51.166;4.760;2023-11-19T06:05:52;28.77;;;6.28;;
27383;SDS011;14851;51.166;4.760;2023-11-19T06:08:20;35.75;;;5.63;;
27383;SDS011;14851;51.166;4.760;2023-11-19T06:10:46;32.42;;;5.05;;
27383;SDS011;14851;51.166;4.760;2023-11-19T06:13:13;34.50;;;5.53;;
27383;SDS011;14851;51.166;4.760;2023-11-19T06:15:42;35.35;;;5.75;;
27383;SDS011;14851;51.166;4.760;2023-11-19T06:18:12;33.80;;;5.57;;
27383;SDS011;14851;51.166;4.760;2023-11-19T06:20:38;34.35;;;5.28;;
27383;SDS011;14851;51.166;4.760;2023-11-19T06:23:04;33.92;;;6.10;;
27383;SDS011;14851;51.166;4.760;2023-11-19T06:25:32;36.50;;;5.78;;
27383;SDS011;14851;51.166;4.760;2023-11-19T06:28:00;31.30;;;5.85;;
27383;SDS011;14851;51.166;4.760;2023-11-19T06:30:27;33.90;;;6.72;;
27383;SDS011;14851;51.166;4.760;2023-11-19T06:32:55;36.78;;;6.93;;
27383;SDS011;14851;51.166;4.760;2023-11-19T06:35:21;32.80;;;5.63;;
27383;SDS011;14851;51.166;4.760;2023-11-19T06:37:47;29.58;;;5.75;;
27383;SDS011;14851;51.166;4.760;2023-11-19T06:40:17;35.63;;;7.65;;
27383;SDS011;14851;51.166;4.760;2023-11-19T06:42:47;38.78;;;6.60;;
27383;SDS011;14851;51.166;4.760;2023-11-19T06:45:13;35.42;;;5.15;;
27383;SDS011;14851;51.166;4.760;2023-11-19T06:47:42;36.05;;;5.93;;
27383;SDS011;14851;51.166;4.760;2023-11-19T06:50:08;36.78;;;6.68;;
27383;SDS011;14851;51.166;4.760;2023-11-19T06:52:34;32.17;;;5.95;;
27383;SDS011;14851;51.166;4.760;2023-11-19T06:55:02;38.63;;;7.38;;
27383;SDS011;14851;51.166;4.760;2023-11-19T06:57:29;34.00;;;6.43;;
27383;SDS011;14851;51.166;4.760;2023-11-19T06:59:57;35.35;;;5.90;;
27383;SDS011;14851;51.166;4.760;2023-11-19T07:02:24;31.45;;;5.63;;
27383;SDS011;14851;51.166;4.760;2023-11-19T07:04:53;36.72;;;6.28;;
27383;SDS011;14851;51.166;4.760;2023-11-19T07:07:22;39.63;;;6.05;;
27383;SDS011;14851;51.166;4.760;2023-11-19T07:09:52;35.72;;;6.32;;
27383;SDS011;14851;51.166;4.760;2023-11-19T07:12:18;39.25;;;5.43;;
27383;SDS011;14851;51.166;4.760;2023-11-19T07:14:45;34.58;;;6.00;;
27383;SDS011;14851;51.166;4.760;2023-11-19T07:17:15;34.65;;;5.85;;
27383;SDS011;14851;51.166;4.760;2023-11-19T07:19:42;29.42;;;6.25;;
27383;SDS011;14851;51.166;4.760;2023-11-19T07:22:09;30.73;;;5.72;;
27383;SDS011;14851;51.166;4.760;2023-11-19T07:24:40;28.80;;;5.88;;
27383;SDS011;14851;51.166;4.760;2023-11-19T07:27:07;33.60;;;6.82;;
27383;SDS011;14851;51.166;4.760;2023-11-19T07:29:34;30.48;;;5.85;;
27383;SDS011;14851;51.166;4.760;2023-11-19T07:32:01;28.30;;;5.60;;
27383;SDS011;14851;51.166;4.760;2023-11-19T07:34:29;35.45;;;7.38;;
27383;SDS011;14851;51.166;4.760;2023-11-19T07:36:56;31.13;;;5.65;;
27383;SDS011;14851;51.166;4.760;2023-11-19T07:39:30;33.08;;;5.90;;
27383;SDS011;14851;51.166;4.760;2023-11-19T07:41:58;32.20;;;6.07;;
27383;SDS011;14851;51.166;4.760;2023-11-19T07:44:25;30.13;;;5.40;;
27383;SDS011;14851;51.166;4.760;2023-11-19T07:46:51;32.75;;;5.88;;
27383;SDS011;14851;51.166;4.760;2023-11-19T07:49:19;33.30;;;5.63;;
27383;SDS011;14851;51.166;4.760;2023-11-19T07:51:45;40.33;;;6.68;;
27383;SDS011;14851;51.166;4.760;2023-11-19T07:54:13;28.88;;;5.68;;
27383;SDS011;14851;51.166;4.760;2023-11-19T07:56:41;34.15;;;6.45;;
27383;SDS011;14851;51.166;4.760;2023-11-19T07:59:09;28.40;;;5.85;;
27383;SDS011;14851;51.166;4.760;2023-11-19T08:01:35;34.10;;;6.10;;
27383;SDS011;14851;51.166;4.760;2023-11-19T08:04:03;36.67;;;6.40;;
27383;SDS011;14851;51.166;4.760;2023-11-19T08:06:32;32.65;;;6.03;;
27383;SDS011;14851;51.166;4.760;2023-11-19T08:08:58;39.33;;;6.78;;
27383;SDS011;14851;51.166;4.760;2023-11-19T08:11:27;33.75;;;7.75;;
27383;SDS011;14851;51.166;4.760;2023-11-19T08:13:53;30.02;;;5.55;;
27383;SDS011;14851;51.166;4.760;2023-11-19T08:16:19;34.42;;;5.82;;
27383;SDS011;14851;51.166;4.760;2023-11-19T08:18:46;33.65;;;6.35;;
27383;SDS011;14851;51.166;4.760;2023-11-19T08:21:14;35.38;;;5.93;;
27383;SDS011;14851;51.166;4.760;2023-11-19T08:23:42;39.03;;;6.93;;
27383;SDS011;14851;51.166;4.760;2023-11-19T08:26:08;36.47;;;6.93;;
27383;SDS011;14851;51.166;4.760;2023-11-19T08:28:35;31.67;;;6.25;;
27383;SDS011;14851;51.166;4.760;2023-11-19T08:31:01;31.73;;;5.80;;
27383;SDS011;14851;51.166;4.760;2023-11-19T08:33:29;31.98;;;5.47;;
27383;SDS011;14851;51.166;4.760;2023-11-19T08:35:55;33.47;;;5.88;;
27383;SDS011;14851;51.166;4.760;2023-11-19T08:38:24;27.95;;;5.55;;
27383;SDS011;14851;51.166;4.760;2023-11-19T08:40:51;34.08;;;5.68;;
27383;SDS011;14851;51.166;4.760;2023-11-19T08:43:19;31.92;;;5.35;;
27383;SDS011;14851;51.166;4.760;2023-11-19T08:45:50;28.75;;;6.63;;
27383;SDS011;14851;51.166;4.760;2023-11-19T08:48:22;36.67;;;6.53;;
27383;SDS011;14851;51.166;4.760;2023-11-19T08:50:48;29.73;;;6.10;;
27383;SDS011;14851;51.166;4.760;2023-11-19T08:53:15;31.33;;;5.78;;
27383;SDS011;14851;51.166;4.760;2023-11-19T08:55:43;32.22;;;5.28;;
27383;SDS011;14851;51.166;4.760;2023-11-19T08:58:13;26.63;;;5.13;;
27383;SDS011;14851;51.166;4.760;2023-11-19T09:00:39;30.70;;;4.93;;
27383;SDS011;14851;51.166;4.760;2023-11-19T09:03:07;34.10;;;5.85;;
27383;SDS011;14851;51.166;4.760;2023-11-19T09:05:34;33.00;;;5.13;;
27383;SDS011;14851;51.166;4.760;2023-11-19T09:08:00;26.65;;;5.15;;
27383;SDS011;14851;51.166;4.760;2023-11-19T09:10:27;32.15;;;5.40;;
27383;SDS011;14851;51.166;4.760;2023-11-19T09:12:54;27.50;;;4.50;;
27383;SDS011;14851;51.166;4.760;2023-11-19T09:15:21;30.02;;;6.20;;
27383;SDS011;14851;51.166;4.760;2023-11-19T09:17:47;36.75;;;5.35;;
27383;SDS011;14851;51.166;4.760;2023-11-19T09:20:13;24.45;;;4.68;;
27383;SDS011;14851;51.166;4.760;2023-11-19T09:22:43;28.33;;;5.05;;
27383;SDS011;14851;51.166;4.760;2023-11-19T09:25:10;26.45;;;5.55;;
27383;SDS011;14851;51.166;4.760;2023-11-19T09:27:36;31.00;;;6.15;;
27383;SDS011;14851;51.166;4.760;2023-11-19T09:30:04;35.70;;;5.82;;
27383;SDS011;14851;51.166;4.760;2023-11-19T09:32:31;31.75;;;5.10;;
27383;SDS011;14851;51.166;4.760;2023-11-19T09:34:59;30.15;;;5.30;;
27383;SDS011;14851;51.166;4.760;2023-11-19T09:37:28;29.83;;;5.65;;
27383;SDS011;14851;51.166;4.760;2023-11-19T09:39:54;29.67;;;5.13;;
27383;SDS011;14851;51.166;4.760;2023-11-19T09:42:20;32.25;;;5.32;;
27383;SDS011;14851;51.166;4.760;2023-11-19T09:44:47;23.13;;;5.35;;
27383;SDS011;14851;51.166;4.760;2023-11-19T09:47:17;26.77;;;5.20;;
27383;SDS011;14851;51.166;4.760;2023-11-19T09:49:46;24.77;;;4.05;;
27383;SDS011;14851;51.166;4.760;2023-11-19T09:52:13;20.52;;;4.88;;
27383;SDS011;14851;51.166;4.760;2023-11-19T09:54:42;29.08;;;5.20;;
27383;SDS011;14851;51.166;4.760;2023-11-19T09:57:11;25.38;;;4.13;;
27383;SDS011;14851;51.166;4.760;2023-11-19T09:59:41;20.67;;;4.80;;
27383;SDS011;14851;51.166;4.760;2023-11-19T10:02:10;24.05;;;4.53;;
27383;SDS011;14851;51.166;4.760;2023-11-19T10:04:37;27.65;;;5.35;;
27383;SDS011;14851;51.166;4.760;2023-11-19T10:07:05;22.85;;;4.50;;
27383;SDS011;14851;51.166;4.760;2023-11-19T10:09:31;21.00;;;4.85;;
27383;SDS011;14851;51.166;4.760;2023-11-19T10:11:57;23.92;;;4.93;;
27383;SDS011;14851;51.166;4.760;2023-11-19T10:14:26;29.52;;;5.40;;
27383;SDS011;14851;51.166;4.760;2023-11-19T10:16:56;27.27;;;5.95;;
27383;SDS011;14851;51.166;4.760;2023-11-19T10:19:29;27.23;;;4.70;;
27383;SDS011;14851;51.166;4.760;2023-11-19T10:21:56;23.33;;;4.90;;
27383;SDS011;14851;51.166;4.760;2023-11-19T10:24:32;23.80;;;5.78;;
27383;SDS011;14851;51.166;4.760;2023-11-19T10:27:00;22.92;;;4.15;;
27383;SDS011;14851;51.166;4.760;2023-11-19T10:29:29;30.97;;;4.37;;
27383;SDS011;14851;51.166;4.760;2023-11-19T10:31:56;22.27;;;3.58;;
27383;SDS011;14851;51.166;4.760;2023-11-19T10:34:26;28.27;;;4.50;;
27383;SDS011;14851;51.166;4.760;2023-11-19T10:36:53;26.48;;;5.07;;
27383;SDS011;14851;51.166;4.760;2023-11-19T10:39:21;23.52;;;3.90;;
27383;SDS011;14851;51.166;4.760;2023-11-19T10:41:49;28.20;;;4.32;;
27383;SDS011;14851;51.166;4.760;2023-11-19T10:47:12;19.38;;;4.05;;
27383;SDS011;14851;51.166;4.760;2023-11-19T10:49:43;27.20;;;4.43;;
27383;SDS011;14851;51.166;4.760;2023-11-19T10:52:11;22.73;;;4.70;;
27383;SDS011;14851;51.166;4.760;2023-11-19T10:54:39;26.55;;;4.25;;
27383;SDS011;14851;51.166;4.760;2023-11-19T10:57:09;31.15;;;5.72;;
27383;SDS011;14851;51.166;4.760;2023-11-19T10:59:40;23.73;;;4.88;;
27383;SDS011;14851;51.166;4.760;2023-11-19T11:02:09;23.90;;;5.05;;
27383;SDS011;14851;51.166;4.760;2023-11-19T11:04:41;22.00;;;3.88;;
27383;SDS011;14851;51.166;4.760;2023-11-19T11:07:08;20.35;;;4.30;;
27383;SDS011;14851;51.166;4.760;2023-11-19T11:09:36;26.00;;;5.40;;
27383;SDS011;14851;51.166;4.760;2023-11-19T11:12:03;24.65;;;4.47;;
27383;SDS011;14851;51.166;4.760;2023-11-19T11:14:31;28.48;;;5.38;;
27383;SDS011;14851;51.166;4.760;2023-11-19T11:17:00;22.30;;;5.28;;
27383;SDS011;14851;51.166;4.760;2023-11-19T11:19:35;25.90;;;4.68;;
27383;SDS011;14851;51.166;4.760;2023-11-19T11:22:02;33.57;;;5.23;;
27383;SDS011;14851;51.166;4.760;2023-11-19T11:24:33;31.70;;;5.28;;
27383;SDS011;14851;51.166;4.760;2023-11-19T11:28:05;24.38;;;4.80;;
27383;SDS011;14851;51.166;4.760;2023-11-19T11:36:24;18.20;;;3.80;;
27383;SDS011;14851;51.166;4.760;2023-11-19T11:38:51;24.50;;;4.80;;
27383;SDS011;14851;51.166;4.760;2023-11-19T11:41:24;34.80;;;6.90;;
27383;SDS011;14851;51.166;4.760;2023-11-19T11:43:51;24.20;;;4.20;;
27383;SDS011;14851;51.166;4.760;2023-11-19T11:49:07;21.35;;;4.22;;
27383;SDS011;14851;51.166;4.760;2023-11-19T11:57:08;21.42;;;4.28;;
27383;SDS011;14851;51.166;4.760;2023-11-19T12:02:09;21.90;;;4.22;;
27383;SDS011;14851;51.166;4.760;2023-11-19T12:04:42;24.40;;;4.07;;
27383;SDS011;14851;51.166;4.760;2023-11-19T12:07:16;20.92;;;3.90;;
27383;SDS011;14851;51.166;4.760;2023-11-19T12:09:53;17.65;;;3.67;;
27383;SDS011;14851;51.166;4.760;2023-11-19T12:12:32;19.50;;;4.13;;
27383;SDS011;14851;51.166;4.760;2023-11-19T12:15:03;20.58;;;4.45;;
27383;SDS011;14851;51.166;4.760;2023-11-19T12:20:05;25.13;;;4.70;;
27383;SDS011;14851;51.166;4.760;2023-11-19T12:22:37;28.73;;;5.55;;
27383;SDS011;14851;51.166;4.760;2023-11-19T12:25:05;18.70;;;4.60;;
27383;SDS011;14851;51.166;4.760;2023-11-19T12:27:34;21.60;;;4.78;;
27383;SDS011;14851;51.166;4.760;2023-11-19T12:30:02;27.35;;;5.95;;
27383;SDS011;14851;51.166;4.760;2023-11-19T12:35:11;27.00;;;4.57;;
27383;SDS011;14851;51.166;4.760;2023-11-19T12:37:41;22.85;;;4.50;;
27383;SDS011;14851;51.166;4.760;2023-11-19T12:40:23;22.92;;;4.43;;
27383;SDS011;14851;51.166;4.760;2023-11-19T12:42:53;23.38;;;4.78;;
27383;SDS011;14851;51.166;4.760;2023-11-19T12:45:20;29.10;;;5.43;;
27383;SDS011;14851;51.166;4.760;2023-11-19T12:47:49;26.13;;;5.38;;
27383;SDS011;14851;51.166;4.760;2023-11-19T12:50:22;20.30;;;4.20;;
27383;SDS011;14851;51.166;4.760;2023-11-19T12:52:59;29.90;;;5.47;;
27383;SDS011;14851;51.166;4.760;2023-11-19T12:55:28;24.33;;;5.50;;
27383;SDS011;14851;51.166;4.760;2023-11-19T12:57:54;23.88;;;4.32;;
27383;SDS011;14851;51.166;4.760;2023-11-19T13:00:24;33.72;;;8.40;;
27383;SDS011;14851;51.166;4.760;2023-11-19T13:02:52;29.30;;;5.95;;
27383;SDS011;14851;51.166;4.760;2023-11-19T13:08:02;30.48;;;6.45;;
27383;SDS011;14851;51.166;4.760;2023-11-19T13:10:33;22.95;;;5.25;;
27383;SDS011;14851;51.166;4.760;2023-11-19T13:13:16;18.25;;;4.57;;
27383;SDS011;14851;51.166;4.760;2023-11-19T13:15:43;21.67;;;3.83;;
27383;SDS011;14851;51.166;4.760;2023-11-19T13:18:10;21.45;;;4.93;;
27383;SDS011;14851;51.166;4.760;2023-11-19T13:20:36;23.77;;;4.80;;
27383;SDS011;14851;51.166;4.760;2023-11-19T13:23:06;23.95;;;5.72;;
27383;SDS011;14851;51.166;4.760;2023-11-19T13:25:33;18.58;;;4.65;;
27383;SDS011;14851;51.166;4.760;2023-11-19T13:27:59;25.63;;;5.35;;
27383;SDS011;14851;51.166;4.760;2023-11-19T13:30:25;25.38;;;4.45;;
27383;SDS011;14851;51.166;4.760;2023-11-19T13:32:52;24.00;;;4.68;;
27383;SDS011;14851;51.166;4.760;2023-11-19T13:35:20;28.83;;;4.55;;
27383;SDS011;14851;51.166;4.760;2023-11-19T13:37:50;23.85;;;4.47;;
27383;SDS011;14851;51.166;4.760;2023-11-19T13:40:19;20.55;;;3.95;;
27383;SDS011;14851;51.166;4.760;2023-11-19T13:42:47;22.67;;;5.18;;
27383;SDS011;14851;51.166;4.760;2023-11-19T13:45:13;29.10;;;6.03;;
27383;SDS011;14851;51.166;4.760;2023-11-19T13:47:40;21.05;;;4.05;;
27383;SDS011;14851;51.166;4.760;2023-11-19T13:50:12;24.88;;;4.82;;
27383;SDS011;14851;51.166;4.760;2023-11-19T13:52:40;24.88;;;4.65;;
27383;SDS011;14851;51.166;4.760;2023-11-19T13:55:10;27.17;;;4.97;;
27383;SDS011;14851;51.166;4.760;2023-11-19T13:57:38;25.45;;;4.50;;
27383;SDS011;14851;51.166;4.760;2023-11-19T14:00:06;22.00;;;4.82;;
27383;SDS011;14851;51.166;4.760;2023-11-19T14:03:01;30.13;;;4.07;;
27383;SDS011;14851;51.166;4.760;2023-11-19T14:05:29;17.17;;;4.40;;
27383;SDS011;14851;51.166;4.760;2023-11-19T14:07:58;30.45;;;7.25;;
27383;SDS011;14851;51.166;4.760;2023-11-19T14:10:26;24.27;;;5.63;;
27383;SDS011;14851;51.166;4.760;2023-11-19T14:12:56;24.63;;;5.03;;
27383;SDS011;14851;51.166;4.760;2023-11-19T14:15:24;23.00;;;4.97;;
27383;SDS011;14851;51.166;4.760;2023-11-19T14:17:52;27.55;;;7.97;;
27383;SDS011;14851;51.166;4.760;2023-11-19T14:20:20;25.75;;;4.72;;
27383;SDS011;14851;51.166;4.760;2023-11-19T14:22:49;22.77;;;5.63;;
27383;SDS011;14851;51.166;4.760;2023-11-19T14:25:16;22.40;;;5.13;;
27383;SDS011;14851;51.166;4.760;2023-11-19T14:27:43;23.45;;;4.38;;
27383;SDS011;14851;51.166;4.760;2023-11-19T14:30:10;20.75;;;4.00;;
27383;SDS011;14851;51.166;4.760;2023-11-19T14:32:39;25.98;;;4.53;;
27383;SDS011;14851;51.166;4.760;2023-11-19T14:35:05;22.67;;;4.47;;
27383;SDS011;14851;51.166;4.760;2023-11-19T14:37:35;19.27;;;3.65;;
27383;SDS011;14851;51.166;4.760;2023-11-19T14:40:02;19.90;;;4.32;;
27383;SDS011;14851;51.166;4.760;2023-11-19T14:42:30;22.05;;;4.35;;
27383;SDS011;14851;51.166;4.760;2023-11-19T14:44:56;25.38;;;5.93;;
27383;SDS011;14851;51.166;4.760;2023-11-19T14:47:22;25.33;;;4.78;;
27383;SDS011;14851;51.166;4.760;2023-11-19T14:49:51;16.35;;;3.78;;
27383;SDS011;14851;51.166;4.760;2023-11-19T14:52:17;21.08;;;4.32;;
27383;SDS011;14851;51.166;4.760;2023-11-19T14:54:45;25.63;;;4.47;;
27383;SDS011;14851;51.166;4.760;2023-11-19T14:57:11;24.92;;;5.28;;
27383;SDS011;14851;51.166;4.760;2023-11-19T14:59:38;21.05;;;4.18;;
27383;SDS011;14851;51.166;4.760;2023-11-19T15:02:04;27.63;;;4.70;;
27383;SDS011;14851;51.166;4.760;2023-11-19T15:04:34;17.90;;;4.93;;
27383;SDS011;14851;51.166;4.760;2023-11-19T15:07:02;21.27;;;4.70;;
27383;SDS011;14851;51.166;4.760;2023-11-19T15:09:29;23.02;;;5.13;;
27383;SDS011;14851;51.166;4.760;2023-11-19T15:11:58;24.17;;;4.47;;
27383;SDS011;14851;51.166;4.760;2023-11-19T15:14:27;19.77;;;5.45;;